sensor_id;sensor_type;location;lat;lon;timestamp;P1;durP1;ratioP1;P2;durP2;ratioP2
65552;SDS011;72126;51.560;14.368;2024-03-08T00:01:48;9.73;;;5.47;;
65552;SDS011;72126;51.560;14.368;2024-03-08T00:04:14;11.33;;;5.47;;
65552;SDS011;72126;51.560;14.368;2024-03-08T00:06:39;12.85;;;6.78;;
65552;SDS011;72126;51.560;14.368;2024-03-08T00:09:04;7.37;;;4.70;;
65552;SDS011;72126;51.560;14.368;2024-03-08T00:11:30;10.30;;;6.10;;
65552;SDS011;72126;51.560;14.368;2024-03-08T00:13:55;11.23;;;5.63;;
65552;SDS011;72126;51.560;14.368;2024-03-08T00:16:20;9.03;;;5.23;;
65552;SDS011;72126;51.560;14.368;2024-03-08T00:18:45;13.45;;;6.60;;
65552;SDS011;72126;51.560;14.368;2024-03-08T00:21:10;10.77;;;6.67;;
65552;SDS011;72126;51.560;14.368;2024-03-08T00:23:36;10.43;;;6.43;;
65552;SDS011;72126;51.560;14.368;2024-03-08T00:26:01;9.53;;;6.00;;
65552;SDS011;72126;51.560;14.368;2024-03-08T00:28:26;10.77;;;6.87;;
65552;SDS011;72126;51.560;14.368;2024-03-08T00:30:51;11.37;;;6.67;;
65552;SDS011;72126;51.560;14.368;2024-03-08T00:33:16;9.70;;;6.27;;
65552;SDS011;72126;51.560;14.368;2024-03-08T00:35:41;8.90;;;5.27;;
65552;SDS011;72126;51.560;14.368;2024-03-08T00:38:07;9.23;;;5.97;;
65552;SDS011;72126;51.560;14.368;2024-03-08T00:40:32;10.73;;;5.90;;
65552;SDS011;72126;51.560;14.368;2024-03-08T00:42:57;9.47;;;5.60;;
65552;SDS011;72126;51.560;14.368;2024-03-08T00:45:22;12.32;;;6.57;;
65552;SDS011;72126;51.560;14.368;2024-03-08T00:47:47;11.33;;;6.43;;
65552;SDS011;72126;51.560;14.368;2024-03-08T00:50:13;11.00;;;6.20;;
65552;SDS011;72126;51.560;14.368;2024-03-08T00:52:38;12.55;;;6.65;;
65552;SDS011;72126;51.560;14.368;2024-03-08T00:55:03;9.60;;;5.93;;
65552;SDS011;72126;51.560;14.368;2024-03-08T00:57:29;10.88;;;6.57;;
65552;SDS011;72126;51.560;14.368;2024-03-08T00:59:54;9.80;;;6.07;;
65552;SDS011;72126;51.560;14.368;2024-03-08T01:02:19;9.60;;;5.00;;
65552;SDS011;72126;51.560;14.368;2024-03-08T01:04:44;9.70;;;6.10;;
65552;SDS011;72126;51.560;14.368;2024-03-08T01:07:10;10.57;;;6.33;;
65552;SDS011;72126;51.560;14.368;2024-03-08T01:09:35;11.10;;;6.10;;
65552;SDS011;72126;51.560;14.368;2024-03-08T01:12:00;11.23;;;6.83;;
65552;SDS011;72126;51.560;14.368;2024-03-08T01:14:25;9.37;;;5.17;;
65552;SDS011;72126;51.560;14.368;2024-03-08T01:16:50;11.93;;;6.47;;
65552;SDS011;72126;51.560;14.368;2024-03-08T01:19:16;11.68;;;6.22;;
65552;SDS011;72126;51.560;14.368;2024-03-08T01:21:44;10.23;;;5.68;;
65552;SDS011;72126;51.560;14.368;2024-03-08T01:24:09;11.18;;;6.43;;
65552;SDS011;72126;51.560;14.368;2024-03-08T01:26:34;7.55;;;4.97;;
65552;SDS011;72126;51.560;14.368;2024-03-08T01:29:00;11.00;;;6.38;;
65552;SDS011;72126;51.560;14.368;2024-03-08T01:31:25;9.75;;;6.03;;
65552;SDS011;72126;51.560;14.368;2024-03-08T01:33:50;10.80;;;6.17;;
65552;SDS011;72126;51.560;14.368;2024-03-08T01:36:16;10.37;;;5.93;;
65552;SDS011;72126;51.560;14.368;2024-03-08T01:38:42;11.27;;;6.20;;
65552;SDS011;72126;51.560;14.368;2024-03-08T01:41:07;13.63;;;7.28;;
65552;SDS011;72126;51.560;14.368;2024-03-08T01:43:33;12.38;;;7.18;;
65552;SDS011;72126;51.560;14.368;2024-03-08T01:45:58;10.63;;;5.90;;
65552;SDS011;72126;51.560;14.368;2024-03-08T01:48:24;15.13;;;8.00;;
65552;SDS011;72126;51.560;14.368;2024-03-08T01:50:49;12.15;;;6.72;;
65552;SDS011;72126;51.560;14.368;2024-03-08T01:53:17;12.75;;;6.75;;
65552;SDS011;72126;51.560;14.368;2024-03-08T01:55:43;11.95;;;6.72;;
65552;SDS011;72126;51.560;14.368;2024-03-08T01:58:11;10.80;;;6.55;;
65552;SDS011;72126;51.560;14.368;2024-03-08T02:00:38;13.02;;;7.68;;
65552;SDS011;72126;51.560;14.368;2024-03-08T02:03:05;11.82;;;7.57;;
65552;SDS011;72126;51.560;14.368;2024-03-08T02:05:30;12.93;;;7.53;;
65552;SDS011;72126;51.560;14.368;2024-03-08T02:07:55;10.83;;;6.93;;
65552;SDS011;72126;51.560;14.368;2024-03-08T02:10:21;10.50;;;6.20;;
65552;SDS011;72126;51.560;14.368;2024-03-08T02:12:46;10.70;;;5.73;;
65552;SDS011;72126;51.560;14.368;2024-03-08T02:15:11;9.13;;;5.95;;
65552;SDS011;72126;51.560;14.368;2024-03-08T02:17:37;13.33;;;7.53;;
65552;SDS011;72126;51.560;14.368;2024-03-08T02:20:03;11.27;;;6.37;;
65552;SDS011;72126;51.560;14.368;2024-03-08T02:22:28;11.80;;;6.70;;
65552;SDS011;72126;51.560;14.368;2024-03-08T02:24:55;11.23;;;6.50;;
65552;SDS011;72126;51.560;14.368;2024-03-08T02:27:24;13.32;;;7.05;;
65552;SDS011;72126;51.560;14.368;2024-03-08T02:29:50;13.10;;;7.18;;
65552;SDS011;72126;51.560;14.368;2024-03-08T02:32:19;9.95;;;5.85;;
65552;SDS011;72126;51.560;14.368;2024-03-08T02:34:44;11.27;;;6.70;;
65552;SDS011;72126;51.560;14.368;2024-03-08T02:37:09;8.97;;;5.73;;
65552;SDS011;72126;51.560;14.368;2024-03-08T02:39:35;12.70;;;7.47;;
65552;SDS011;72126;51.560;14.368;2024-03-08T02:42:00;13.07;;;7.37;;
65552;SDS011;72126;51.560;14.368;2024-03-08T02:44:25;11.77;;;7.57;;
65552;SDS011;72126;51.560;14.368;2024-03-08T02:46:50;12.30;;;6.47;;
65552;SDS011;72126;51.560;14.368;2024-03-08T02:49:15;11.87;;;6.97;;
65552;SDS011;72126;51.560;14.368;2024-03-08T02:51:41;10.60;;;6.17;;
65552;SDS011;72126;51.560;14.368;2024-03-08T02:54:06;13.23;;;8.07;;
65552;SDS011;72126;51.560;14.368;2024-03-08T02:56:31;17.77;;;9.20;;
65552;SDS011;72126;51.560;14.368;2024-03-08T02:58:56;12.63;;;7.73;;
65552;SDS011;72126;51.560;14.368;2024-03-08T03:01:21;14.13;;;8.17;;
65552;SDS011;72126;51.560;14.368;2024-03-08T03:03:46;11.93;;;7.37;;
65552;SDS011;72126;51.560;14.368;2024-03-08T03:06:12;14.40;;;8.07;;
65552;SDS011;72126;51.560;14.368;2024-03-08T03:08:37;10.80;;;6.30;;
65552;SDS011;72126;51.560;14.368;2024-03-08T03:11:02;12.43;;;7.47;;
65552;SDS011;72126;51.560;14.368;2024-03-08T03:13:27;14.52;;;8.38;;
65552;SDS011;72126;51.560;14.368;2024-03-08T03:15:52;15.63;;;8.33;;
65552;SDS011;72126;51.560;14.368;2024-03-08T03:18:18;13.30;;;8.00;;
65552;SDS011;72126;51.560;14.368;2024-03-08T03:20:43;13.13;;;7.23;;
65552;SDS011;72126;51.560;14.368;2024-03-08T03:23:08;14.23;;;8.13;;
65552;SDS011;72126;51.560;14.368;2024-03-08T03:25:34;15.18;;;7.85;;
65552;SDS011;72126;51.560;14.368;2024-03-08T03:28:03;14.70;;;7.90;;
65552;SDS011;72126;51.560;14.368;2024-03-08T03:30:29;12.57;;;7.20;;
65552;SDS011;72126;51.560;14.368;2024-03-08T03:32:54;11.10;;;7.13;;
65552;SDS011;72126;51.560;14.368;2024-03-08T03:35:19;12.50;;;6.33;;
65552;SDS011;72126;51.560;14.368;2024-03-08T03:37:46;10.20;;;5.93;;
65552;SDS011;72126;51.560;14.368;2024-03-08T03:40:12;14.77;;;7.82;;
65552;SDS011;72126;51.560;14.368;2024-03-08T03:42:37;10.48;;;7.05;;
65552;SDS011;72126;51.560;14.368;2024-03-08T03:45:02;12.33;;;7.37;;
65552;SDS011;72126;51.560;14.368;2024-03-08T03:47:28;15.20;;;8.77;;
65552;SDS011;72126;51.560;14.368;2024-03-08T03:49:53;14.17;;;7.10;;
65552;SDS011;72126;51.560;14.368;2024-03-08T03:52:18;12.80;;;7.57;;
65552;SDS011;72126;51.560;14.368;2024-03-08T03:54:43;15.67;;;8.23;;
65552;SDS011;72126;51.560;14.368;2024-03-08T03:57:08;14.87;;;8.77;;
65552;SDS011;72126;51.560;14.368;2024-03-08T03:59:34;15.77;;;8.50;;
65552;SDS011;72126;51.560;14.368;2024-03-08T04:01:59;11.00;;;6.80;;
65552;SDS011;72126;51.560;14.368;2024-03-08T04:04:24;14.17;;;7.43;;
65552;SDS011;72126;51.560;14.368;2024-03-08T04:06:49;13.37;;;7.60;;
65552;SDS011;72126;51.560;14.368;2024-03-08T04:09:14;13.93;;;8.02;;
65552;SDS011;72126;51.560;14.368;2024-03-08T04:11:40;14.73;;;8.60;;
65552;SDS011;72126;51.560;14.368;2024-03-08T04:14:05;15.17;;;8.53;;
65552;SDS011;72126;51.560;14.368;2024-03-08T04:16:30;16.67;;;8.33;;
65552;SDS011;72126;51.560;14.368;2024-03-08T04:18:56;12.82;;;7.40;;
65552;SDS011;72126;51.560;14.368;2024-03-08T04:21:21;12.37;;;6.87;;
65552;SDS011;72126;51.560;14.368;2024-03-08T04:23:46;12.80;;;7.57;;
65552;SDS011;72126;51.560;14.368;2024-03-08T04:26:11;11.37;;;6.97;;
65552;SDS011;72126;51.560;14.368;2024-03-08T04:28:37;15.10;;;7.90;;
65552;SDS011;72126;51.560;14.368;2024-03-08T04:31:02;13.73;;;7.80;;
65552;SDS011;72126;51.560;14.368;2024-03-08T04:33:28;13.48;;;7.80;;
65552;SDS011;72126;51.560;14.368;2024-03-08T04:35:53;13.23;;;7.30;;
65552;SDS011;72126;51.560;14.368;2024-03-08T04:38:18;12.97;;;7.50;;
65552;SDS011;72126;51.560;14.368;2024-03-08T04:40:44;16.10;;;8.50;;
65552;SDS011;72126;51.560;14.368;2024-03-08T04:43:09;12.17;;;6.63;;
65552;SDS011;72126;51.560;14.368;2024-03-08T04:45:34;15.73;;;8.45;;
65552;SDS011;72126;51.560;14.368;2024-03-08T04:47:59;14.73;;;7.67;;
65552;SDS011;72126;51.560;14.368;2024-03-08T04:50:24;11.50;;;6.50;;
65552;SDS011;72126;51.560;14.368;2024-03-08T04:52:50;14.45;;;7.43;;
65552;SDS011;72126;51.560;14.368;2024-03-08T04:55:15;15.53;;;8.70;;
65552;SDS011;72126;51.560;14.368;2024-03-08T04:57:40;11.03;;;6.90;;
65552;SDS011;72126;51.560;14.368;2024-03-08T05:00:05;10.73;;;6.55;;
65552;SDS011;72126;51.560;14.368;2024-03-08T05:02:31;12.30;;;7.38;;
65552;SDS011;72126;51.560;14.368;2024-03-08T05:04:59;13.75;;;8.50;;
65552;SDS011;72126;51.560;14.368;2024-03-08T05:07:24;14.03;;;7.70;;
65552;SDS011;72126;51.560;14.368;2024-03-08T05:09:49;13.07;;;7.40;;
65552;SDS011;72126;51.560;14.368;2024-03-08T05:12:14;11.77;;;7.60;;
65552;SDS011;72126;51.560;14.368;2024-03-08T05:14:40;13.23;;;7.03;;
65552;SDS011;72126;51.560;14.368;2024-03-08T05:17:05;13.37;;;6.97;;
65552;SDS011;72126;51.560;14.368;2024-03-08T05:19:30;11.13;;;7.17;;
65552;SDS011;72126;51.560;14.368;2024-03-08T05:21:55;14.63;;;6.37;;
65552;SDS011;72126;51.560;14.368;2024-03-08T05:24:20;13.87;;;7.40;;
65552;SDS011;72126;51.560;14.368;2024-03-08T05:26:46;13.63;;;7.28;;
65552;SDS011;72126;51.560;14.368;2024-03-08T05:29:11;10.27;;;5.97;;
65552;SDS011;72126;51.560;14.368;2024-03-08T05:31:46;11.98;;;7.00;;
65552;SDS011;72126;51.560;14.368;2024-03-08T05:34:12;13.13;;;6.70;;
65552;SDS011;72126;51.560;14.368;2024-03-08T05:36:37;12.57;;;6.90;;
65552;SDS011;72126;51.560;14.368;2024-03-08T05:39:02;13.23;;;7.63;;
65552;SDS011;72126;51.560;14.368;2024-03-08T05:41:27;15.32;;;8.27;;
65552;SDS011;72126;51.560;14.368;2024-03-08T05:43:52;12.37;;;7.47;;
65552;SDS011;72126;51.560;14.368;2024-03-08T05:46:18;14.10;;;8.07;;
65552;SDS011;72126;51.560;14.368;2024-03-08T05:48:43;11.43;;;6.67;;
65552;SDS011;72126;51.560;14.368;2024-03-08T05:51:08;14.60;;;7.95;;
65552;SDS011;72126;51.560;14.368;2024-03-08T05:53:33;9.73;;;5.63;;
65552;SDS011;72126;51.560;14.368;2024-03-08T05:55:58;15.25;;;7.38;;
65552;SDS011;72126;51.560;14.368;2024-03-08T05:58:24;14.90;;;8.00;;
65552;SDS011;72126;51.560;14.368;2024-03-08T06:00:49;13.73;;;7.13;;
65552;SDS011;72126;51.560;14.368;2024-03-08T06:03:14;11.43;;;7.10;;
65552;SDS011;72126;51.560;14.368;2024-03-08T06:05:40;12.17;;;6.13;;
65552;SDS011;72126;51.560;14.368;2024-03-08T06:08:05;14.88;;;8.20;;
65552;SDS011;72126;51.560;14.368;2024-03-08T06:10:30;16.90;;;7.72;;
65552;SDS011;72126;51.560;14.368;2024-03-08T06:12:55;13.23;;;6.32;;
65552;SDS011;72126;51.560;14.368;2024-03-08T06:15:21;14.23;;;7.40;;
65552;SDS011;72126;51.560;14.368;2024-03-08T06:17:46;13.32;;;7.35;;
65552;SDS011;72126;51.560;14.368;2024-03-08T06:20:11;15.90;;;8.77;;
65552;SDS011;72126;51.560;14.368;2024-03-08T06:22:39;15.23;;;7.82;;
65552;SDS011;72126;51.560;14.368;2024-03-08T06:25:05;12.70;;;7.18;;
65552;SDS011;72126;51.560;14.368;2024-03-08T06:27:30;13.40;;;7.82;;
65552;SDS011;72126;51.560;14.368;2024-03-08T06:29:55;13.30;;;7.50;;
65552;SDS011;72126;51.560;14.368;2024-03-08T06:32:21;14.20;;;8.20;;
65552;SDS011;72126;51.560;14.368;2024-03-08T06:34:46;17.33;;;9.73;;
65552;SDS011;72126;51.560;14.368;2024-03-08T06:37:11;16.37;;;7.77;;
65552;SDS011;72126;51.560;14.368;2024-03-08T06:39:36;17.70;;;7.97;;
65552;SDS011;72126;51.560;14.368;2024-03-08T06:42:01;16.30;;;7.80;;
65552;SDS011;72126;51.560;14.368;2024-03-08T06:44:26;14.67;;;7.80;;
65552;SDS011;72126;51.560;14.368;2024-03-08T06:46:52;14.97;;;8.40;;
65552;SDS011;72126;51.560;14.368;2024-03-08T06:49:17;15.65;;;8.18;;
65552;SDS011;72126;51.560;14.368;2024-03-08T06:51:42;13.00;;;7.63;;
65552;SDS011;72126;51.560;14.368;2024-03-08T06:54:07;14.57;;;8.63;;
65552;SDS011;72126;51.560;14.368;2024-03-08T06:56:32;16.40;;;8.53;;
65552;SDS011;72126;51.560;14.368;2024-03-08T06:58:58;15.90;;;8.07;;
65552;SDS011;72126;51.560;14.368;2024-03-08T07:01:23;17.50;;;8.37;;
65552;SDS011;72126;51.560;14.368;2024-03-08T07:03:48;12.07;;;6.63;;
65552;SDS011;72126;51.560;14.368;2024-03-08T07:06:13;12.83;;;6.77;;
65552;SDS011;72126;51.560;14.368;2024-03-08T07:08:38;14.60;;;7.03;;
65552;SDS011;72126;51.560;14.368;2024-03-08T07:11:03;13.23;;;7.83;;
65552;SDS011;72126;51.560;14.368;2024-03-08T07:13:29;16.60;;;7.97;;
65552;SDS011;72126;51.560;14.368;2024-03-08T07:15:54;14.77;;;8.03;;
65552;SDS011;72126;51.560;14.368;2024-03-08T07:18:19;13.87;;;7.23;;
65552;SDS011;72126;51.560;14.368;2024-03-08T07:20:44;14.47;;;6.73;;
65552;SDS011;72126;51.560;14.368;2024-03-08T07:23:09;12.80;;;7.00;;
65552;SDS011;72126;51.560;14.368;2024-03-08T07:25:35;17.60;;;8.83;;
65552;SDS011;72126;51.560;14.368;2024-03-08T07:28:00;13.53;;;7.27;;
65552;SDS011;72126;51.560;14.368;2024-03-08T07:30:25;13.57;;;7.70;;
65552;SDS011;72126;51.560;14.368;2024-03-08T07:32:52;13.90;;;7.25;;
65552;SDS011;72126;51.560;14.368;2024-03-08T07:35:17;12.77;;;7.00;;
65552;SDS011;72126;51.560;14.368;2024-03-08T07:37:42;15.10;;;7.83;;
65552;SDS011;72126;51.560;14.368;2024-03-08T07:40:07;14.43;;;7.13;;
65552;SDS011;72126;51.560;14.368;2024-03-08T07:42:33;12.60;;;7.57;;
65552;SDS011;72126;51.560;14.368;2024-03-08T07:44:58;11.77;;;6.60;;
65552;SDS011;72126;51.560;14.368;2024-03-08T07:47:23;16.00;;;8.17;;
65552;SDS011;72126;51.560;14.368;2024-03-08T07:49:48;14.87;;;7.57;;
65552;SDS011;72126;51.560;14.368;2024-03-08T07:52:13;12.67;;;6.53;;
65552;SDS011;72126;51.560;14.368;2024-03-08T07:54:39;14.60;;;7.53;;
65552;SDS011;72126;51.560;14.368;2024-03-08T07:57:04;15.90;;;8.47;;
65552;SDS011;72126;51.560;14.368;2024-03-08T07:59:29;11.40;;;6.65;;
65552;SDS011;72126;51.560;14.368;2024-03-08T08:01:54;15.47;;;7.60;;
65552;SDS011;72126;51.560;14.368;2024-03-08T08:04:19;12.50;;;7.40;;
65552;SDS011;72126;51.560;14.368;2024-03-08T08:06:45;16.23;;;8.43;;
65552;SDS011;72126;51.560;14.368;2024-03-08T08:09:10;15.63;;;8.33;;
65552;SDS011;72126;51.560;14.368;2024-03-08T08:11:35;14.73;;;7.50;;
65552;SDS011;72126;51.560;14.368;2024-03-08T08:14:00;15.65;;;7.97;;
65552;SDS011;72126;51.560;14.368;2024-03-08T08:16:25;12.23;;;7.53;;
65552;SDS011;72126;51.560;14.368;2024-03-08T08:18:51;16.47;;;8.43;;
65552;SDS011;72126;51.560;14.368;2024-03-08T08:21:16;14.35;;;7.45;;
65552;SDS011;72126;51.560;14.368;2024-03-08T08:23:41;14.83;;;8.03;;
65552;SDS011;72126;51.560;14.368;2024-03-08T08:26:06;13.27;;;7.70;;
65552;SDS011;72126;51.560;14.368;2024-03-08T08:28:31;13.80;;;6.87;;
65552;SDS011;72126;51.560;14.368;2024-03-08T08:30:56;18.27;;;9.17;;
65552;SDS011;72126;51.560;14.368;2024-03-08T08:33:22;13.90;;;7.50;;
65552;SDS011;72126;51.560;14.368;2024-03-08T08:35:47;13.63;;;7.43;;
65552;SDS011;72126;51.560;14.368;2024-03-08T08:38:12;10.43;;;5.90;;
65552;SDS011;72126;51.560;14.368;2024-03-08T08:40:37;8.53;;;5.10;;
65552;SDS011;72126;51.560;14.368;2024-03-08T08:43:03;17.13;;;8.53;;
65552;SDS011;72126;51.560;14.368;2024-03-08T08:45:28;16.08;;;7.75;;
65552;SDS011;72126;51.560;14.368;2024-03-08T08:47:53;14.67;;;7.73;;
65552;SDS011;72126;51.560;14.368;2024-03-08T08:50:18;13.67;;;6.80;;
65552;SDS011;72126;51.560;14.368;2024-03-08T08:52:43;10.47;;;5.87;;
65552;SDS011;72126;51.560;14.368;2024-03-08T08:55:09;12.67;;;6.23;;
65552;SDS011;72126;51.560;14.368;2024-03-08T08:57:34;8.77;;;5.47;;
65552;SDS011;72126;51.560;14.368;2024-03-08T08:59:59;11.23;;;6.13;;
65552;SDS011;72126;51.560;14.368;2024-03-08T09:02:25;8.07;;;5.17;;
65552;SDS011;72126;51.560;14.368;2024-03-08T09:04:50;10.57;;;5.50;;
65552;SDS011;72126;51.560;14.368;2024-03-08T09:07:15;10.37;;;5.97;;
65552;SDS011;72126;51.560;14.368;2024-03-08T09:09:41;10.67;;;6.30;;
65552;SDS011;72126;51.560;14.368;2024-03-08T09:12:07;9.30;;;5.70;;
65552;SDS011;72126;51.560;14.368;2024-03-08T09:14:32;12.37;;;6.63;;
65552;SDS011;72126;51.560;14.368;2024-03-08T09:16:57;8.57;;;4.87;;
65552;SDS011;72126;51.560;14.368;2024-03-08T09:19:22;12.93;;;7.07;;
65552;SDS011;72126;51.560;14.368;2024-03-08T09:21:48;10.70;;;5.90;;
65552;SDS011;72126;51.560;14.368;2024-03-08T09:24:13;10.40;;;5.73;;
65552;SDS011;72126;51.560;14.368;2024-03-08T09:26:38;10.83;;;5.57;;
65552;SDS011;72126;51.560;14.368;2024-03-08T09:29:03;11.23;;;6.73;;
65552;SDS011;72126;51.560;14.368;2024-03-08T09:31:28;12.43;;;6.87;;
65552;SDS011;72126;51.560;14.368;2024-03-08T09:33:53;10.93;;;6.63;;
65552;SDS011;72126;51.560;14.368;2024-03-08T09:36:19;14.93;;;7.33;;
65552;SDS011;72126;51.560;14.368;2024-03-08T09:38:44;14.33;;;7.67;;
65552;SDS011;72126;51.560;14.368;2024-03-08T09:41:09;9.97;;;6.20;;
65552;SDS011;72126;51.560;14.368;2024-03-08T09:43:34;9.77;;;5.35;;
65552;SDS011;72126;51.560;14.368;2024-03-08T09:46:00;9.48;;;5.28;;
65552;SDS011;72126;51.560;14.368;2024-03-08T09:48:25;12.57;;;6.70;;
65552;SDS011;72126;51.560;14.368;2024-03-08T09:50:51;14.27;;;7.10;;
65552;SDS011;72126;51.560;14.368;2024-03-08T09:53:16;10.03;;;5.10;;
65552;SDS011;72126;51.560;14.368;2024-03-08T09:55:41;9.73;;;4.90;;
65552;SDS011;72126;51.560;14.368;2024-03-08T09:58:06;12.80;;;6.03;;
65552;SDS011;72126;51.560;14.368;2024-03-08T10:00:33;10.27;;;5.57;;
65552;SDS011;72126;51.560;14.368;2024-03-08T10:03:01;9.98;;;5.43;;
65552;SDS011;72126;51.560;14.368;2024-03-08T10:05:27;11.35;;;5.90;;
65552;SDS011;72126;51.560;14.368;2024-03-08T10:07:52;8.07;;;5.10;;
65552;SDS011;72126;51.560;14.368;2024-03-08T10:10:17;9.00;;;5.20;;
65552;SDS011;72126;51.560;14.368;2024-03-08T10:12:42;8.53;;;4.73;;
65552;SDS011;72126;51.560;14.368;2024-03-08T10:15:08;11.45;;;6.18;;
65552;SDS011;72126;51.560;14.368;2024-03-08T10:17:36;7.28;;;4.93;;
65552;SDS011;72126;51.560;14.368;2024-03-08T10:20:01;7.78;;;4.97;;
65552;SDS011;72126;51.560;14.368;2024-03-08T10:22:27;9.70;;;5.60;;
65552;SDS011;72126;51.560;14.368;2024-03-08T10:24:52;13.32;;;5.97;;
65552;SDS011;72126;51.560;14.368;2024-03-08T10:27:17;12.30;;;5.80;;
65552;SDS011;72126;51.560;14.368;2024-03-08T10:29:46;7.22;;;4.40;;
65552;SDS011;72126;51.560;14.368;2024-03-08T10:32:12;9.57;;;5.55;;
65552;SDS011;72126;51.560;14.368;2024-03-08T10:34:37;8.47;;;5.30;;
65552;SDS011;72126;51.560;14.368;2024-03-08T10:37:05;8.43;;;4.60;;
65552;SDS011;72126;51.560;14.368;2024-03-08T10:39:35;6.88;;;4.32;;
65552;SDS011;72126;51.560;14.368;2024-03-08T10:42:02;9.90;;;5.05;;
65552;SDS011;72126;51.560;14.368;2024-03-08T10:49:25;9.07;;;5.32;;
65552;SDS011;72126;51.560;14.368;2024-03-08T10:51:57;5.70;;;4.20;;
65552;SDS011;72126;51.560;14.368;2024-03-08T10:54:22;8.80;;;5.00;;
65552;SDS011;72126;51.560;14.368;2024-03-08T10:56:50;5.35;;;4.10;;
65552;SDS011;72126;51.560;14.368;2024-03-08T10:59:18;6.50;;;4.40;;
65552;SDS011;72126;51.560;14.368;2024-03-08T11:01:45;8.32;;;4.65;;
65552;SDS011;72126;51.560;14.368;2024-03-08T11:04:10;7.60;;;4.47;;
65552;SDS011;72126;51.560;14.368;2024-03-08T11:09:00;6.32;;;4.25;;
65552;SDS011;72126;51.560;14.368;2024-03-08T11:11:29;5.57;;;3.90;;
65552;SDS011;72126;51.560;14.368;2024-03-08T11:13:56;9.10;;;5.05;;
65552;SDS011;72126;51.560;14.368;2024-03-08T11:18:49;5.53;;;3.95;;
65552;SDS011;72126;51.560;14.368;2024-03-08T11:21:17;6.05;;;3.72;;
65552;SDS011;72126;51.560;14.368;2024-03-08T11:23:43;6.83;;;4.07;;
65552;SDS011;72126;51.560;14.368;2024-03-08T11:26:20;7.20;;;4.07;;
65552;SDS011;72126;51.560;14.368;2024-03-08T11:28:48;6.53;;;4.22;;
65552;SDS011;72126;51.560;14.368;2024-03-08T11:31:23;8.70;;;4.53;;
65552;SDS011;72126;51.560;14.368;2024-03-08T11:33:49;5.00;;;3.40;;
65552;SDS011;72126;51.560;14.368;2024-03-08T11:36:21;6.80;;;3.70;;
65552;SDS011;72126;51.560;14.368;2024-03-08T11:38:48;6.13;;;3.45;;
65552;SDS011;72126;51.560;14.368;2024-03-08T11:41:23;5.13;;;3.33;;
65552;SDS011;72126;51.560;14.368;2024-03-08T11:43:49;6.40;;;3.80;;
65552;SDS011;72126;51.560;14.368;2024-03-08T11:46:26;8.02;;;4.25;;
65552;SDS011;72126;51.560;14.368;2024-03-08T11:48:54;7.10;;;4.05;;
65552;SDS011;72126;51.560;14.368;2024-03-08T11:51:19;6.13;;;4.18;;
65552;SDS011;72126;51.560;14.368;2024-03-08T11:53:44;7.13;;;4.00;;
65552;SDS011;72126;51.560;14.368;2024-03-08T11:56:10;4.75;;;3.53;;
65552;SDS011;72126;51.560;14.368;2024-03-08T11:58:37;6.00;;;4.00;;
65552;SDS011;72126;51.560;14.368;2024-03-08T12:01:04;6.55;;;4.13;;
65552;SDS011;72126;51.560;14.368;2024-03-08T12:03:30;6.32;;;4.22;;
65552;SDS011;72126;51.560;14.368;2024-03-08T12:05:58;6.70;;;3.77;;
65552;SDS011;72126;51.560;14.368;2024-03-08T12:08:23;8.55;;;4.53;;
65552;SDS011;72126;51.560;14.368;2024-03-08T12:10:50;7.68;;;4.78;;
65552;SDS011;72126;51.560;14.368;2024-03-08T12:13:16;11.35;;;4.03;;
65552;SDS011;72126;51.560;14.368;2024-03-08T12:15:41;7.80;;;3.95;;
65552;SDS011;72126;51.560;14.368;2024-03-08T12:18:06;7.88;;;4.18;;
65552;SDS011;72126;51.560;14.368;2024-03-08T12:20:32;5.88;;;3.83;;
65552;SDS011;72126;51.560;14.368;2024-03-08T12:22:57;8.57;;;4.93;;
65552;SDS011;72126;51.560;14.368;2024-03-08T12:25:27;7.40;;;4.75;;
65552;SDS011;72126;51.560;14.368;2024-03-08T12:27:55;6.25;;;4.07;;
65552;SDS011;72126;51.560;14.368;2024-03-08T12:30:26;7.20;;;4.50;;
65552;SDS011;72126;51.560;14.368;2024-03-08T12:32:57;7.60;;;3.72;;
65552;SDS011;72126;51.560;14.368;2024-03-08T12:35:27;6.68;;;4.45;;
65552;SDS011;72126;51.560;14.368;2024-03-08T12:37:55;7.97;;;4.70;;
65552;SDS011;72126;51.560;14.368;2024-03-08T12:40:28;6.53;;;4.55;;
65552;SDS011;72126;51.560;14.368;2024-03-08T12:42:55;9.13;;;4.88;;
65552;SDS011;72126;51.560;14.368;2024-03-08T12:45:21;10.00;;;5.40;;
65552;SDS011;72126;51.560;14.368;2024-03-08T12:47:47;8.23;;;4.82;;
65552;SDS011;72126;51.560;14.368;2024-03-08T12:50:12;6.25;;;3.80;;
65552;SDS011;72126;51.560;14.368;2024-03-08T12:52:37;9.27;;;4.60;;
65552;SDS011;72126;51.560;14.368;2024-03-08T12:55:02;6.27;;;4.03;;
65552;SDS011;72126;51.560;14.368;2024-03-08T12:57:28;6.68;;;3.67;;
65552;SDS011;72126;51.560;14.368;2024-03-08T12:59:53;9.40;;;4.60;;
65552;SDS011;72126;51.560;14.368;2024-03-08T13:02:19;7.40;;;4.05;;
65552;SDS011;72126;51.560;14.368;2024-03-08T13:04:44;6.75;;;4.22;;
65552;SDS011;72126;51.560;14.368;2024-03-08T13:07:09;7.43;;;4.28;;
65552;SDS011;72126;51.560;14.368;2024-03-08T13:09:34;6.73;;;3.90;;
65552;SDS011;72126;51.560;14.368;2024-03-08T13:11:59;5.95;;;3.83;;
65552;SDS011;72126;51.560;14.368;2024-03-08T13:14:25;7.30;;;4.20;;
65552;SDS011;72126;51.560;14.368;2024-03-08T13:16:50;6.77;;;3.90;;
65552;SDS011;72126;51.560;14.368;2024-03-08T13:19:15;6.13;;;3.73;;
65552;SDS011;72126;51.560;14.368;2024-03-08T13:21:40;9.27;;;5.10;;
65552;SDS011;72126;51.560;14.368;2024-03-08T13:24:05;8.37;;;5.33;;
65552;SDS011;72126;51.560;14.368;2024-03-08T13:26:31;5.88;;;4.00;;
65552;SDS011;72126;51.560;14.368;2024-03-08T13:28:56;8.93;;;4.73;;
65552;SDS011;72126;51.560;14.368;2024-03-08T13:31:21;6.77;;;4.20;;
65552;SDS011;72126;51.560;14.368;2024-03-08T13:33:46;8.15;;;4.53;;
65552;SDS011;72126;51.560;14.368;2024-03-08T13:36:12;7.28;;;4.63;;
65552;SDS011;72126;51.560;14.368;2024-03-08T13:38:37;7.47;;;4.15;;
65552;SDS011;72126;51.560;14.368;2024-03-08T13:41:02;6.67;;;4.33;;
65552;SDS011;72126;51.560;14.368;2024-03-08T13:43:28;7.28;;;4.68;;
65552;SDS011;72126;51.560;14.368;2024-03-08T13:45:53;7.93;;;4.40;;
65552;SDS011;72126;51.560;14.368;2024-03-08T13:48:18;5.13;;;3.37;;
65552;SDS011;72126;51.560;14.368;2024-03-08T13:50:43;7.75;;;4.30;;
65552;SDS011;72126;51.560;14.368;2024-03-08T13:53:09;7.43;;;4.23;;
65552;SDS011;72126;51.560;14.368;2024-03-08T13:55:34;6.00;;;3.90;;
65552;SDS011;72126;51.560;14.368;2024-03-08T13:57:59;11.10;;;5.07;;
65552;SDS011;72126;51.560;14.368;2024-03-08T14:00:24;7.77;;;4.73;;
65552;SDS011;72126;51.560;14.368;2024-03-08T14:02:49;9.43;;;4.93;;
65552;SDS011;72126;51.560;14.368;2024-03-08T14:05:14;6.53;;;3.97;;
65552;SDS011;72126;51.560;14.368;2024-03-08T14:07:40;6.78;;;3.70;;
65552;SDS011;72126;51.560;14.368;2024-03-08T14:10:05;8.03;;;4.33;;
65552;SDS011;72126;51.560;14.368;2024-03-08T14:12:31;8.82;;;4.75;;
65552;SDS011;72126;51.560;14.368;2024-03-08T14:14:56;7.43;;;4.40;;
65552;SDS011;72126;51.560;14.368;2024-03-08T14:17:21;6.88;;;4.15;;
65552;SDS011;72126;51.560;14.368;2024-03-08T14:19:46;8.20;;;5.63;;
65552;SDS011;72126;51.560;14.368;2024-03-08T14:22:11;8.93;;;4.47;;
65552;SDS011;72126;51.560;14.368;2024-03-08T14:24:37;9.20;;;4.97;;
65552;SDS011;72126;51.560;14.368;2024-03-08T14:27:02;8.07;;;4.70;;